Time;durP1;ratioP1;P1;durP2;ratioP2;P2;SDS_P1;SDS_P2;PMS_P1;PMS_P2;Temp;Humidity;BMP_temperature;BMP_pressure;BME280_temperature;BME280_humidity;BME280_pressure;Samples;Min_cycle;Max_cycle;Signal;HPM_P1;HPM_P2
2021/10/25 00:01:14;;;;;;;15.53;9.50;;;154.30;2252.80;;;;;;5014759;28;20061;-77
2021/10/25 00:03:41;;;;;;;17.60;9.75;;;154.30;2252.80;;;;;;5014886;28;20133;-75
2021/10/25 00:06:06;;;;;;;17.88;11.23;;;154.30;2252.80;;;;;;5015307;28;20597;-76
2021/10/25 00:08:32;;;;;;;18.13;10.53;;;154.20;2252.80;;;;;;5015227;28;20120;-76
2021/10/25 00:10:58;;;;;;;16.07;9.37;;;154.30;2252.80;;;;;;5013579;28;20069;-76
2021/10/25 00:13:23;;;;;;;17.17;10.13;;;154.20;2252.80;;;;;;5013372;28;20022;-76
2021/10/25 00:15:50;;;;;;;14.33;9.27;;;154.20;2252.80;;;;;;5013490;28;20041;-74
2021/10/25 00:18:15;;;;;;;20.37;9.77;;;154.20;2252.80;;;;;;5013536;28;20022;-75
2021/10/25 00:20:42;;;;;;;17.70;9.13;;;154.10;2252.80;;;;;;5007105;28;20034;-75
2021/10/25 00:23:08;;;;;;;12.30;8.32;;;154.10;2252.80;;;;;;5002646;28;20113;-75
2021/10/25 00:25:34;;;;;;;14.70;8.60;;;154.10;2252.80;;;;;;4992517;28;20122;-75
2021/10/25 00:28:00;;;;;;;15.67;10.23;;;154.10;2252.80;;;;;;5011308;28;20117;-75
2021/10/25 00:30:26;;;;;;;17.23;10.53;;;154.00;2252.80;;;;;;5012355;28;20026;-75
2021/10/25 00:32:51;;;;;;;18.87;11.70;;;154.00;2252.80;;;;;;4994309;28;20810;-75
2021/10/25 00:35:17;;;;;;;21.87;12.77;;;154.00;2252.80;;;;;;5012238;28;20018;-76
2021/10/25 00:37:43;;;;;;;22.90;11.73;;;154.00;2252.80;;;;;;4994888;28;20422;-75
2021/10/25 00:40:09;;;;;;;22.30;11.87;;;154.00;2252.80;;;;;;4995192;28;20045;-75
2021/10/25 00:42:35;;;;;;;28.73;12.97;;;154.00;2252.80;;;;;;5012255;28;20478;-77
2021/10/25 00:45:01;;;;;;;23.17;13.50;;;154.00;2252.80;;;;;;5012228;28;20018;-75
2021/10/25 00:47:27;;;;;;;26.63;15.07;;;153.90;2252.80;;;;;;5012399;28;20493;-75
2021/10/25 00:49:53;;;;;;;26.83;16.20;;;153.90;2252.80;;;;;;5012017;28;20513;-75
2021/10/25 00:52:19;;;;;;;29.27;16.57;;;153.90;2252.80;;;;;;5008774;28;20022;-75
2021/10/25 00:54:45;;;;;;;29.80;17.13;;;153.90;2252.80;;;;;;4998096;28;20045;-75
2021/10/25 00:57:12;;;;;;;24.57;14.17;;;153.90;2252.80;;;;;;5008364;28;20030;-75
2021/10/25 00:59:37;;;;;;;25.60;15.40;;;153.80;2252.80;;;;;;4993539;28;20041;-75
2021/10/25 01:02:04;;;;;;;24.40;15.20;;;153.80;2252.80;;;;;;5012233;28;20117;-76
2021/10/25 01:04:31;;;;;;;25.27;11.23;;;153.80;2252.80;;;;;;5012062;28;20060;-75
2021/10/25 01:06:58;;;;;;;26.50;10.33;;;153.80;2252.80;;;;;;5012110;28;20042;-75
2021/10/25 01:09:24;;;;;;;20.50;10.57;;;153.70;2252.80;;;;;;5011949;28;20394;-75
2021/10/25 01:11:52;;;;;;;16.73;9.07;;;153.70;2252.80;;;;;;5012214;28;20022;-75
2021/10/25 01:14:18;;;;;;;18.60;9.87;;;128.90;2252.80;;;;;;5011901;28;20029;-75
2021/10/25 01:16:44;;;;;;;15.83;8.80;;;153.60;2252.80;;;;;;4994147;28;20038;-75
2021/10/25 01:19:11;;;;;;;15.77;7.83;;;128.90;2252.80;;;;;;5012312;28;20030;-75
2021/10/25 01:21:37;;;;;;;13.37;8.80;;;128.90;2252.80;;;;;;5010149;28;20030;-75
2021/10/25 01:24:03;;;;;;;13.97;7.60;;;128.90;2252.80;;;;;;5005916;28;20034;-75
2021/10/25 01:26:30;;;;;;;15.90;8.90;;;128.90;2252.80;;;;;;5001801;28;20108;-75
2021/10/25 01:28:55;;;;;;;12.90;7.77;;;128.90;2252.80;;;;;;4997910;28;20030;-76
2021/10/25 01:31:22;;;;;;;13.77;7.37;;;128.90;2252.80;;;;;;5015241;28;20034;-75
2021/10/25 01:33:50;;;;;;;15.40;7.70;;;128.90;2252.80;;;;;;4998085;28;20034;-80
2021/10/25 01:36:16;;;;;;;19.90;9.23;;;128.90;2252.80;;;;;;5015587;28;20091;-80
2021/10/25 01:38:42;;;;;;;18.60;8.43;;;128.70;2252.80;;;;;;5015697;28;20029;-75
2021/10/25 01:41:08;;;;;;;15.00;8.83;;;128.80;2252.80;;;;;;5016092;28;20179;-75
2021/10/25 01:43:36;;;;;;;15.70;8.80;;;128.70;2252.80;;;;;;5016376;28;20026;-75
2021/10/25 01:46:04;;;;;;;16.47;8.87;;;128.70;2252.80;;;;;;5013283;28;20046;-75
2021/10/25 01:48:30;;;;;;;14.83;9.10;;;128.70;2252.80;;;;;;5008057;28;20026;-74
2021/10/25 01:50:55;;;;;;;18.00;8.83;;;128.70;2252.80;;;;;;4998825;28;20081;-76
2021/10/25 01:53:22;;;;;;;17.23;8.87;;;128.60;2252.80;;;;;;5015302;28;20022;-74
2021/10/25 01:55:57;;;;;;;17.03;8.97;;;128.60;2252.80;;;;;;5014819;28;20026;-75
2021/10/25 01:58:22;;;;;;;15.53;9.43;;;128.60;2252.80;;;;;;5015121;28;20072;-75
2021/10/25 02:00:48;;;;;;;16.00;8.37;;;128.50;2252.80;;;;;;4992771;28;20041;-75
2021/10/25 02:03:14;;;;;;;17.57;8.80;;;128.50;2252.80;;;;;;5014444;28;20113;-75
2021/10/25 02:05:40;;;;;;;15.60;8.23;;;128.50;2252.80;;;;;;5015340;28;20068;-79
2021/10/25 02:08:06;;;;;;;19.80;10.10;;;128.50;2252.80;;;;;;5014899;28;20471;-80
2021/10/25 02:10:32;;;;;;;15.10;8.87;;;128.50;2252.80;;;;;;4988651;28;20046;-74
2021/10/25 02:12:58;;;;;;;18.13;7.37;;;128.40;2252.80;;;;;;4989490;28;20041;-76
2021/10/25 02:15:24;;;;;;;14.93;8.30;;;128.40;2252.80;;;;;;5004151;28;20037;-74
2021/10/25 02:17:50;;;;;;;17.33;7.80;;;128.40;2252.80;;;;;;5011167;28;20536;-79
2021/10/25 02:20:15;;;;;;;14.30;7.80;;;128.40;2252.80;;;;;;5014804;28;20105;-74
2021/10/25 02:22:41;;;;;;;12.17;8.33;;;128.40;2252.80;;;;;;5015037;28;20025;-74
2021/10/25 02:25:07;;;;;;;14.73;7.83;;;128.40;2252.80;;;;;;5014838;28;20044;-78
2021/10/25 02:27:33;;;;;;;14.27;8.53;;;128.40;2252.80;;;;;;5015046;28;20574;-79
2021/10/25 02:29:59;;;;;;;16.20;7.87;;;128.30;2252.80;;;;;;5014759;28;20112;-76
2021/10/25 02:32:25;;;;;;;13.10;6.57;;;128.30;2252.80;;;;;;5008451;28;20023;-78
2021/10/25 02:34:52;;;;;;;12.37;8.10;;;128.40;2252.80;;;;;;5011208;28;20022;-73
2021/10/25 02:37:18;;;;;;;13.93;5.80;;;128.30;2252.80;;;;;;4987439;28;20501;-80
2021/10/25 02:39:45;;;;;;;8.30;5.07;;;128.30;2252.80;;;;;;5016944;28;20371;-80
2021/10/25 02:42:11;;;;;;;9.57;6.20;;;128.20;2252.80;;;;;;5016414;28;20501;-75
2021/10/25 02:44:37;;;;;;;11.47;6.20;;;128.20;2252.80;;;;;;5015536;28;20030;-74
2021/10/25 02:47:03;;;;;;;12.60;6.33;;;128.10;2252.80;;;;;;5014675;28;20042;-75
2021/10/25 02:49:30;;;;;;;11.03;7.07;;;103.30;2227.20;;;;;;5001013;28;20122;-75
2021/10/25 02:51:56;;;;;;;15.93;7.73;;;128.10;2252.80;;;;;;5002234;28;20033;-74
2021/10/25 02:54:24;;;;;;;12.27;7.43;;;128.10;2252.80;;;;;;5014660;28;20069;-75
2021/10/25 02:56:51;;;;;;;14.00;6.70;;;128.10;2252.80;;;;;;5014479;28;20026;-75
2021/10/25 02:59:17;;;;;;;17.53;8.57;;;128.10;2252.80;;;;;;5014350;28;20044;-74
2021/10/25 03:01:43;;;;;;;16.80;7.57;;;128.10;2252.80;;;;;;5008251;28;20384;-75
2021/10/25 03:04:09;;;;;;;16.80;8.23;;;128.10;2252.80;;;;;;5014069;28;20018;-75
2021/10/25 03:06:35;;;;;;;15.83;6.67;;;128.10;2252.80;;;;;;5009612;28;20070;-74
2021/10/25 03:09:02;;;;;;;12.73;7.70;;;128.10;2252.80;;;;;;5010675;28;20455;-75
2021/10/25 03:11:28;;;;;;;14.60;7.17;;;128.00;2252.80;;;;;;5016156;28;20104;-74
2021/10/25 03:13:54;;;;;;;17.27;8.13;;;128.00;2252.80;;;;;;4996548;28;20453;-74
2021/10/25 03:16:24;;;;;;;16.30;8.60;;;128.00;2252.80;;;;;;5014719;28;20030;-74
2021/10/25 03:18:50;;;;;;;15.63;8.93;;;128.00;2252.80;;;;;;5014061;28;20025;-76
2021/10/25 03:21:21;;;;;;;12.07;7.67;;;103.30;2227.20;;;;;;5009211;28;20472;-75
2021/10/25 03:23:48;;;;;;;13.07;7.33;;;128.00;2252.80;;;;;;5002421;28;20426;-75
2021/10/25 03:26:14;;;;;;;13.30;6.57;;;103.30;2227.20;;;;;;5005423;28;20018;-74
2021/10/25 03:28:40;;;;;;;15.33;8.20;;;103.30;2227.20;;;;;;5013887;28;20113;-74
2021/10/25 03:31:07;;;;;;;17.37;9.93;;;103.30;2227.20;;;;;;5005873;28;20121;-77
2021/10/25 03:33:34;;;;;;;19.47;9.13;;;103.30;2227.20;;;;;;5008126;28;20026;-74
2021/10/25 03:36:02;;;;;;;13.37;7.90;;;103.30;2227.20;;;;;;4991083;28;20048;-74
2021/10/25 03:38:30;;;;;;;18.57;9.60;;;103.30;2227.20;;;;;;4995694;28;20030;-74
2021/10/25 03:40:56;;;;;;;15.27;8.90;;;103.20;2227.20;;;;;;5013281;28;20049;-74
2021/10/25 03:43:26;;;;;;;16.00;10.13;;;103.30;2227.20;;;;;;5013392;28;20112;-74
2021/10/25 03:46:01;;;;;;;22.17;10.53;;;103.20;2227.20;;;;;;4994941;28;20038;-75
2021/10/25 03:50:53;;;;;;;23.67;9.90;;;103.20;2227.20;;;;;;5012754;28;20029;-74
2021/10/25 04:30:33;;;;;;;17.33;10.97;;;102.70;2227.20;;;;;;5002417;28;20034;-75
2021/10/25 04:33:00;;;;;;;17.80;9.30;;;102.70;2227.20;;;;;;4999553;28;20033;-74
2021/10/25 04:35:26;;;;;;;17.90;10.70;;;102.80;2227.20;;;;;;5010942;28;20032;-74
2021/10/25 04:37:52;;;;;;;15.90;10.23;;;102.80;2227.20;;;;;;4994177;28;20445;-75
2021/10/25 04:40:18;;;;;;;16.37;9.37;;;102.80;2227.20;;;;;;5012003;28;20386;-82
2021/10/25 04:42:44;;;;;;;17.40;10.03;;;102.80;2227.20;;;;;;5012086;28;20030;-82
2021/10/25 04:45:10;;;;;;;46.53;22.87;;;102.80;2227.20;;;;;;4996061;28;20038;-82
2021/10/25 04:47:36;;;;;;;31.03;16.20;;;102.90;2227.20;;;;;;5012953;28;20053;-83
2021/10/25 04:50:04;;;;;;;65.43;29.30;;;102.80;2227.20;;;;;;5013114;28;20046;-82
2021/10/25 04:52:30;;;;;;;58.57;27.00;;;102.80;2227.20;;;;;;5013277;28;20124;-82
2021/10/25 04:54:56;;;;;;;47.60;21.90;;;102.80;2227.20;;;;;;5012998;28;20486;-77
2021/10/25 04:57:22;;;;;;;21.80;12.20;;;102.90;2227.20;;;;;;5014201;28;20028;-83
2021/10/25 04:59:48;;;;;;;33.13;15.90;;;102.90;2227.20;;;;;;4999351;28;20108;-82
2021/10/25 05:02:14;;;;;;;25.97;11.83;;;102.80;2227.20;;;;;;5016298;28;20069;-83
2021/10/25 05:04:41;;;;;;;34.93;17.13;;;102.80;2227.20;;;;;;5015646;28;20034;-79
2021/10/25 05:07:07;;;;;;;91.63;46.03;;;102.80;2227.20;;;;;;4998215;28;20042;-75
2021/10/25 05:09:33;;;;;;;130.93;60.13;;;102.80;2227.20;;;;;;4998718;28;20038;-81
2021/10/25 05:11:59;;;;;;;65.20;35.70;;;102.80;2227.20;;;;;;4998899;28;20028;-83
2021/10/25 05:14:25;;;;;;;55.10;27.07;;;102.80;2227.20;;;;;;4999229;28;20064;-83
2021/10/25 05:16:52;;;;;;;42.63;23.37;;;102.80;2227.20;;;;;;5016532;28;20488;-84
2021/10/25 05:19:17;;;;;;;35.90;18.53;;;102.80;2227.20;;;;;;5016419;28;20030;-83
2021/10/25 05:21:43;;;;;;;32.30;16.60;;;102.80;2227.20;;;;;;5015085;28;20030;-80
2021/10/25 05:24:09;;;;;;;28.80;14.00;;;102.80;2227.20;;;;;;5006921;28;20081;-81
2021/10/25 05:26:35;;;;;;;28.43;16.50;;;102.70;2227.20;;;;;;4963531;28;20399;-80
2021/10/25 05:29:01;;;;;;;28.03;15.70;;;102.80;2227.20;;;;;;5015862;28;20032;-81
2021/10/25 05:31:27;;;;;;;35.40;17.63;;;102.80;2227.20;;;;;;4998244;28;20121;-81
2021/10/25 05:33:53;;;;;;;57.87;30.57;;;102.80;2227.20;;;;;;5015839;28;20025;-81
2021/10/25 05:36:19;;;;;;;64.93;39.47;;;102.80;2227.20;;;;;;5015578;28;20052;-81
2021/10/25 05:38:45;;;;;;;55.00;36.17;;;102.80;2227.20;;;;;;5015596;28;20030;-80
2021/10/25 05:41:13;;;;;;;59.03;26.13;;;102.80;2227.20;;;;;;5015943;28;20022;-81
2021/10/25 05:43:40;;;;;;;55.60;28.50;;;102.80;2227.20;;;;;;5015776;28;20109;-80
2021/10/25 05:46:06;;;;;;;44.63;24.10;;;102.70;2227.20;;;;;;5002100;28;20034;-80
2021/10/25 05:48:32;;;;;;;43.80;21.90;;;102.70;2227.20;;;;;;5015874;28;20028;-80
2021/10/25 05:51:00;;;;;;;33.00;18.00;;;102.70;2227.20;;;;;;5015763;28;20038;-80
2021/10/25 05:53:26;;;;;;;40.43;23.10;;;102.80;2227.20;;;;;;5016375;28;20132;-80
2021/10/25 05:55:52;;;;;;;32.27;19.27;;;102.80;2227.20;;;;;;5015640;28;20076;-80
2021/10/25 05:58:21;;;;;;;34.07;19.07;;;102.80;2227.20;;;;;;5015827;28;20018;-80
2021/10/25 06:01:01;;;;;;;37.27;18.73;;;102.80;2227.20;;;;;;5015953;28;20022;-80
2021/10/25 06:03:30;;;;;;;36.23;18.93;;;102.80;2227.20;;;;;;5015407;28;20098;-80
2021/10/25 06:05:55;;;;;;;31.80;18.63;;;102.80;2227.20;;;;;;4998136;28;20072;-80
2021/10/25 06:08:21;;;;;;;57.63;26.87;;;102.90;2227.20;;;;;;5015360;28;20049;-80
2021/10/25 06:10:48;;;;;;;64.73;34.27;;;102.90;2227.20;;;;;;5028394;28;20034;-76
2021/10/25 06:13:30;;;;;;;85.83;44.93;;;102.80;2227.20;;;;;;5010907;28;20041;-79
2021/10/25 06:16:08;;;;;;;112.78;58.10;;;102.80;2227.20;;;;;;5018741;28;20022;-80
2021/10/25 06:18:34;;;;;;;93.60;42.97;;;102.70;2227.20;;;;;;5014801;28;20433;-80
2021/10/25 06:21:00;;;;;;;85.17;48.30;;;102.60;2227.20;;;;;;5014966;28;20030;-80
2021/10/25 06:23:26;;;;;;;80.53;44.13;;;102.60;2227.20;;;;;;5014776;28;20021;-74
2021/10/25 06:25:52;;;;;;;93.00;50.40;;;102.50;2227.20;;;;;;5014882;28;20093;-80
2021/10/25 06:28:20;;;;;;;79.17;43.23;;;102.50;2227.20;;;;;;5014563;28;20390;-81
2021/10/25 06:30:54;;;;;;;68.73;38.30;;;102.50;2227.20;;;;;;5014675;28;20366;-81
2021/10/25 06:33:21;;;;;;;56.83;32.10;;;102.60;2227.20;;;;;;5014533;28;20033;-81
2021/10/25 06:35:56;;;;;;;68.93;37.83;;;102.60;2227.20;;;;;;5014827;28;20022;-82
2021/10/25 06:38:24;;;;;;;65.53;35.63;;;102.60;2227.20;;;;;;5014640;28;20074;-83
2021/10/25 06:40:50;;;;;;;63.77;33.73;;;102.70;2227.20;;;;;;5014910;28;20022;-82
2021/10/25 06:43:16;;;;;;;60.40;32.07;;;102.70;2227.20;;;;;;4998282;28;20019;-82
2021/10/25 06:45:41;;;;;;;47.23;28.53;;;102.70;2227.20;;;;;;5002034;28;20041;-80
2021/10/25 06:48:07;;;;;;;51.43;28.50;;;102.60;2227.20;;;;;;4997314;28;20025;-82
2021/10/25 06:50:39;;;;;;;52.13;30.07;;;102.60;2227.20;;;;;;4999766;28;20042;-85
2021/10/25 06:53:06;;;;;;;52.93;31.70;;;102.60;2227.20;;;;;;4991359;28;20192;-79
2021/10/25 06:55:33;;;;;;;50.47;29.40;;;102.70;2227.20;;;;;;5008952;28;20076;-81
2021/10/25 06:58:00;;;;;;;53.53;27.77;;;102.80;2227.20;;;;;;5001119;28;20049;-84
2021/10/25 07:00:25;;;;;;;54.40;30.03;;;102.90;2227.20;;;;;;4997201;28;20030;-85
2021/10/25 07:02:51;;;;;;;58.03;33.37;;;103.10;2227.20;;;;;;5014574;28;20363;-79
2021/10/25 07:05:17;;;;;;;48.60;29.33;;;103.20;2227.20;;;;;;5014741;28;20094;-81
2021/10/25 07:07:43;;;;;;;48.73;28.70;;;103.20;2227.20;;;;;;5015406;28;20117;-86
2021/10/25 07:10:10;;;;;;;46.63;27.20;;;103.30;2227.20;;;;;;5015078;28;20038;-84
2021/10/25 07:12:36;;;;;;;42.50;26.27;;;128.00;2252.80;;;;;;4996502;28;20042;-83
2021/10/25 07:15:04;;;;;;;54.80;27.57;;;128.10;2252.80;;;;;;5012734;28;20036;-84
2021/10/25 08:11:10;;;;;;;34.38;21.52;;;205.20;2252.80;;;;;;5013193;28;20540;-75
2021/10/25 08:13:42;;;;;;;34.20;20.90;;;205.20;2252.80;;;;;;5013184;28;20072;-74
2021/10/25 08:16:13;;;;;;;32.40;20.25;;;205.20;2201.60;;;;;;5013188;28;20026;-74
2021/10/25 08:21:11;;;;;;;30.00;20.58;;;205.40;2176.00;;;;;;5013007;28;20033;-75
2021/10/25 08:23:38;;;;;;;33.35;18.63;;;205.60;2176.00;;;;;;5013194;28;20018;-78
2021/10/25 08:26:04;;;;;;;31.50;17.67;;;205.70;2150.40;;;;;;5012742;28;20052;-75
2021/10/25 08:28:30;;;;;;;30.75;16.02;;;230.40;2150.40;;;;;;5012717;28;20101;-75
2021/10/25 08:30:58;;;;;;;24.50;16.95;;;230.40;2099.20;;;;;;5012835;28;20041;-75
2021/10/25 08:36:11;;;;;;;26.45;16.80;;;230.60;2099.20;;;;;;5007498;28;20045;-76
2021/10/25 08:41:23;;;;;;;30.42;17.58;;;230.80;2073.60;;;;;;5016974;28;20081;-74
2021/10/25 08:43:52;;;;;;;30.10;17.58;;;231.00;2099.20;;;;;;5016503;28;20029;-75
2021/10/25 08:46:20;;;;;;;31.30;17.13;;;231.00;2048.00;;;;;;4995596;28;20447;-74
2021/10/25 08:48:46;;;;;;;28.63;15.25;;;231.10;2073.60;;;;;;4996980;28;20386;-76
2021/10/25 08:51:14;;;;;;;26.35;15.88;;;231.20;2124.80;;;;;;4996872;28;20034;-75
2021/10/25 08:53:40;;;;;;;20.92;14.50;;;256.20;2048.00;;;;;;4996886;28;20120;-75
2021/10/25 08:56:06;;;;;;;28.70;14.73;;;256.20;2048.00;;;;;;4995417;28;20493;-75
2021/10/25 08:58:35;;;;;;;24.58;14.40;;;256.30;2022.40;;;;;;4996910;28;20089;-75
2021/10/25 09:01:02;;;;;;;23.52;11.95;;;256.60;1996.80;;;;;;4996721;28;20497;-75
2021/10/25 09:03:28;;;;;;;27.73;17.08;;;256.70;1971.20;;;;;;4996688;28;20065;-76
2021/10/25 09:05:55;;;;;;;23.60;13.15;;;256.90;1971.20;;;;;;4996728;28;20104;-79
2021/10/25 09:08:22;;;;;;;21.30;13.25;;;281.70;1920.00;;;;;;4996444;28;20047;-76
2021/10/25 09:10:48;;;;;;;18.95;12.32;;;281.80;1945.60;;;;;;4996707;28;20152;-76
2021/10/25 09:13:16;;;;;;;18.23;11.25;;;281.90;1945.60;;;;;;4995098;28;20032;-76
2021/10/25 09:15:46;;;;;;;19.17;10.43;;;282.00;1920.00;;;;;;4995308;28;20084;-75
2021/10/25 09:18:20;;;;;;;23.60;12.02;;;282.00;1920.00;;;;;;4997173;28;20455;-75
2021/10/25 09:20:51;;;;;;;19.88;13.18;;;282.30;1996.80;;;;;;4999427;28;20097;-75
2021/10/25 09:23:24;;;;;;;22.13;13.77;;;282.40;1920.00;;;;;;4999729;28;20018;-75
2021/10/25 09:25:56;;;;;;;28.13;17.67;;;282.50;1945.60;;;;;;5001293;28;20367;-76
2021/10/25 09:28:27;;;;;;;22.48;15.07;;;307.30;1920.00;;;;;;5000536;28;20030;-78
2021/10/25 09:31:06;;;;;;;14.93;10.52;;;307.50;1920.00;;;;;;5005355;28;20066;-76
2021/10/25 09:33:35;;;;;;;29.40;14.73;;;307.70;1894.40;;;;;;5003931;28;20025;-79
2021/10/25 09:36:06;;;;;;;20.33;11.55;;;307.90;1894.40;;;;;;4997809;28;20026;-76
2021/10/25 09:49:11;;;;;;;16.20;10.57;;;333.30;1868.80;;;;;;5015213;28;20084;-75
2021/10/25 09:51:38;;;;;;;12.75;9.40;;;333.30;1817.60;;;;;;5015445;28;20030;-76
2021/10/25 09:54:05;;;;;;;14.25;10.13;;;333.50;1817.60;;;;;;4997552;28;20462;-78
2021/10/25 09:56:43;;;;;;;13.55;8.98;;;333.40;1817.60;;;;;;4997751;28;20091;-76
2021/10/25 09:59:30;;;;;;;22.15;11.48;;;333.50;1843.20;;;;;;5015292;28;20045;-78
2021/10/25 10:01:57;;;;;;;18.45;11.60;;;333.60;1817.60;;;;;;5015566;28;20112;-75
2021/10/25 10:04:23;;;;;;;16.42;9.73;;;333.70;1817.60;;;;;;5014952;28;20030;-77
2021/10/25 10:06:49;;;;;;;12.48;8.90;;;333.70;1792.00;;;;;;5014889;28;20103;-76
2021/10/25 10:09:16;;;;;;;15.90;9.25;;;333.70;1766.40;;;;;;4997408;28;20120;-78
2021/10/25 10:11:43;;;;;;;16.40;9.95;;;358.40;1792.00;;;;;;5015146;28;20088;-77
2021/10/25 10:14:09;;;;;;;16.23;10.18;;;358.70;1817.60;;;;;;5015221;28;20071;-76
2021/10/25 10:16:41;;;;;;;15.48;10.23;;;359.00;1740.80;;;;;;5014784;28;20037;-77
2021/10/25 10:19:12;;;;;;;18.20;9.52;;;359.10;1740.80;;;;;;5014764;28;20052;-76
2021/10/25 10:21:39;;;;;;;14.05;9.73;;;359.30;1740.80;;;;;;5014550;28;20145;-77
2021/10/25 10:24:09;;;;;;;18.48;9.75;;;384.10;1740.80;;;;;;5014852;28;20474;-77
2021/10/25 10:26:37;;;;;;;14.63;9.57;;;384.10;1715.20;;;;;;4997071;28;20018;-77
2021/10/25 10:29:16;;;;;;;18.38;10.10;;;384.10;1689.60;;;;;;4997157;28;20038;-77
2021/10/25 10:31:43;;;;;;;13.55;9.10;;;384.20;1689.60;;;;;;4997140;28;20026;-78
2021/10/25 10:34:17;;;;;;;21.30;11.82;;;384.30;1664.00;;;;;;5014652;28;20423;-77
2021/10/25 10:36:54;;;;;;;16.50;10.70;;;384.40;1638.40;;;;;;5011787;28;20025;-80
2021/10/25 10:39:25;;;;;;;16.23;8.90;;;384.40;1664.00;;;;;;4996704;28;20108;-77
2021/10/25 10:41:57;;;;;;;14.98;11.07;;;384.50;1689.60;;;;;;5004958;28;20161;-77
2021/10/25 10:44:27;;;;;;;11.73;7.70;;;384.60;1638.40;;;;;;4993037;28;20516;-77
2021/10/25 10:47:02;;;;;;;18.08;9.55;;;384.60;1664.00;;;;;;5013653;28;20508;-77
2021/10/25 10:49:42;;;;;;;13.60;8.68;;;384.80;1664.00;;;;;;4993897;28;20398;-76
2021/10/25 10:52:17;;;;;;;14.30;9.38;;;384.90;1612.80;;;;;;4982864;28;20482;-77
2021/10/25 11:00:20;;;;;;;16.13;9.32;;;384.80;1612.80;;;;;;4988093;28;20035;-76
2021/10/25 11:02:51;;;;;;;19.98;10.00;;;384.90;1612.80;;;;;;4975913;28;20474;-77
2021/10/25 11:05:27;;;;;;;17.65;11.32;;;409.70;1638.40;;;;;;4992017;28;20481;-76
2021/10/25 11:08:08;;;;;;;20.80;12.20;;;409.70;1638.40;;;;;;4984375;28;20027;-76
2021/10/25 11:10:39;;;;;;;20.60;12.57;;;410.00;1612.80;;;;;;4988038;28;20065;-76
2021/10/25 11:13:15;;;;;;;22.98;14.25;;;409.80;1612.80;;;;;;4983725;28;20081;-76
2021/10/25 11:16:07;;;;;;;21.55;10.65;;;409.90;1638.40;;;;;;4991137;28;20038;-76
2021/10/25 11:18:48;;;;;;;20.17;10.43;;;410.20;1612.80;;;;;;5062495;28;20417;-75
2021/10/25 11:21:23;;;;;;;25.80;17.15;;;410.20;1587.20;;;;;;5065089;28;20036;-76
2021/10/25 11:23:54;;;;;;;29.40;16.75;;;410.10;1612.80;;;;;;5048896;28;20096;-77
2021/10/25 11:26:27;;;;;;;32.97;18.27;;;410.00;1612.80;;;;;;5049791;28;20017;-78
2021/10/25 11:29:20;;;;;;;20.65;12.48;;;410.20;1612.80;;;;;;5050146;28;20017;-75
2021/10/25 11:31:47;;;;;;;;;;;410.50;1612.80;;;;;;5050195;28;20087;-76
2021/10/25 11:34:24;;;;;;;13.32;9.13;;;410.50;1561.60;;;;;;5049309;28;19940;-77
2021/10/25 11:37:04;;;;;;;15.05;9.05;;;410.50;1587.20;;;;;;5055049;28;20026;-78
2021/10/25 11:39:41;;;;;;;14.88;9.40;;;435.30;1612.80;;;;;;5050938;28;20546;-78
2021/10/25 11:42:20;;;;;;;15.25;9.27;;;435.40;1536.00;;;;;;5048487;28;20482;-78
2021/10/25 11:44:48;;;;;;;17.08;8.52;;;435.60;1536.00;;;;;;5075099;28;20044;-77
2021/10/25 11:47:21;;;;;;;15.07;8.43;;;435.70;1587.20;;;;;;5050014;28;20024;-82
2021/10/25 11:49:58;;;;;;;15.05;8.00;;;435.80;1561.60;;;;;;5049643;28;20029;-77
2021/10/25 11:52:24;;;;;;;12.60;8.65;;;436.10;1536.00;;;;;;5049175;28;20470;-77
2021/10/25 11:54:52;;;;;;;10.32;7.10;;;460.90;1561.60;;;;;;5048776;28;20033;-76
2021/10/25 11:57:20;;;;;;;14.25;8.02;;;461.20;1561.60;;;;;;5049242;28;20069;-76
2021/10/25 12:00:00;;;;;;;11.93;8.48;;;461.30;1484.80;;;;;;5049631;28;20021;-77
2021/10/25 12:02:26;;;;;;;12.73;8.13;;;461.20;1484.80;;;;;;5049294;28;20052;-76
2021/10/25 12:04:52;;;;;;;11.15;7.35;;;461.40;1536.00;;;;;;5049449;28;20096;-81
2021/10/25 12:07:18;;;;;;;11.77;7.28;;;461.40;1510.40;;;;;;5047922;28;20121;-77
2021/10/25 12:09:44;;;;;;;12.82;7.60;;;461.50;1510.40;;;;;;5047974;28;20435;-78
2021/10/25 12:12:16;;;;;;;14.98;9.13;;;461.70;1484.80;;;;;;5049244;28;20021;-77
2021/10/25 12:14:44;;;;;;;19.25;8.25;;;486.40;1459.20;;;;;;5045579;28;20082;-76
2021/10/25 12:17:21;;;;;;;16.40;9.40;;;486.50;1459.20;;;;;;5048744;28;20106;-76
2021/10/25 12:19:47;;;;;;;17.33;8.75;;;461.70;1459.20;;;;;;5046504;28;20022;-77
2021/10/25 12:22:20;;;;;;;9.00;6.85;;;461.70;1459.20;;;;;;5048959;28;20017;-77
2021/10/25 12:24:51;;;;;;;11.98;7.70;;;486.40;1459.20;;;;;;5048777;28;20022;-80
2021/10/25 12:27:25;;;;;;;12.48;7.68;;;486.60;1484.80;;;;;;5049464;28;20017;-77
2021/10/25 12:30:10;;;;;;;10.35;5.43;;;486.50;1484.80;;;;;;5036467;28;20090;-87
2021/10/25 12:32:48;;;;;;;9.02;5.95;;;486.60;1408.00;;;;;;5035692;28;20072;-78
2021/10/25 12:35:14;;;;;;;11.80;6.40;;;486.90;1433.60;;;;;;5034367;28;20025;-79
2021/10/25 12:37:40;;;;;;;19.42;7.05;;;487.10;1459.20;;;;;;5035488;28;20473;-80
2021/10/25 12:40:17;;;;;;;19.55;10.25;;;487.20;1382.40;;;;;;5034204;28;20026;-77
2021/10/25 12:42:44;;;;;;;10.85;6.35;;;487.10;1382.40;;;;;;5022325;28;20057;-76
2021/10/25 12:45:18;;;;;;;9.70;6.43;;;486.90;1408.00;;;;;;5035666;28;20101;-75
2021/10/25 12:47:45;;;;;;;10.55;6.38;;;486.60;1408.00;;;;;;5067227;28;20389;-81
2021/10/25 12:50:15;;;;;;;13.80;7.10;;;486.60;1408.00;;;;;;5033946;28;20021;-76
2021/10/25 12:52:44;;;;;;;13.77;8.55;;;486.50;1433.60;;;;;;5035314;28;20087;-75
2021/10/25 12:55:10;;;;;;;28.17;16.35;;;486.60;1408.00;;;;;;5034963;28;20025;-76
2021/10/25 12:57:39;;;;;;;13.65;8.63;;;486.50;1433.60;;;;;;5035220;28;20041;-75
2021/10/25 13:00:13;;;;;;;18.60;10.18;;;486.60;1408.00;;;;;;5035070;28;20105;-73
2021/10/25 13:02:43;;;;;;;15.25;7.68;;;486.60;1459.20;;;;;;5035450;28;20017;-74
2021/10/25 13:05:45;;;;;;;10.05;7.50;;;486.60;1408.00;;;;;;5035223;28;20017;-77
2021/10/25 13:08:11;;;;;;;12.25;6.88;;;486.50;1433.60;;;;;;5027425;28;20025;-76
2021/10/25 13:10:41;;;;;;;15.60;7.35;;;486.60;1433.60;;;;;;5035058;28;20022;-74
2021/10/25 13:13:09;;;;;;;12.70;7.50;;;486.60;1433.60;;;;;;5034793;28;20493;-76
2021/10/25 13:15:36;;;;;;;9.43;6.63;;;486.60;1433.60;;;;;;5034873;28;20021;-81
2021/10/25 13:18:07;;;;;;;14.68;8.48;;;486.60;1459.20;;;;;;5034996;28;20191;-77
2021/10/25 13:20:37;;;;;;;14.77;8.07;;;486.60;1433.60;;;;;;5036262;28;20060;-81
2021/10/25 13:23:04;;;;;;;10.93;6.50;;;486.50;1433.60;;;;;;5037075;28;20032;-76
2021/10/25 13:25:31;;;;;;;9.50;6.40;;;486.60;1433.60;;;;;;5034067;28;20025;-76
2021/10/25 13:27:59;;;;;;;11.27;5.95;;;486.50;1433.60;;;;;;5036608;28;20021;-75
2021/10/25 13:30:26;;;;;;;11.18;5.57;;;486.50;1433.60;;;;;;5036975;28;20382;-76
2021/10/25 13:32:53;;;;;;;9.40;7.13;;;461.70;1433.60;;;;;;5035510;28;20079;-78
2021/10/25 13:35:20;;;;;;;9.32;5.75;;;461.60;1459.20;;;;;;5036124;28;20103;-76
2021/10/25 13:37:55;;;;;;;17.35;9.13;;;461.60;1459.20;;;;;;5037193;28;20095;-81
2021/10/25 13:40:24;;;;;;;14.35;8.98;;;461.60;1459.20;;;;;;5034923;28;20022;-76
2021/10/25 13:42:51;;;;;;;11.80;7.60;;;461.70;1459.20;;;;;;5039311;28;20025;-77
2021/10/25 13:45:17;;;;;;;10.80;8.38;;;461.60;1433.60;;;;;;5039107;28;20531;-82
2021/10/25 13:47:43;;;;;;;10.00;6.47;;;461.50;1459.20;;;;;;5036496;28;20123;-77
2021/10/25 13:50:09;;;;;;;16.17;8.75;;;461.60;1459.20;;;;;;5032008;28;20037;-79
2021/10/25 13:52:36;;;;;;;12.73;8.52;;;461.60;1459.20;;;;;;5034666;28;20103;-76
2021/10/25 13:55:06;;;;;;;17.02;9.88;;;461.60;1459.20;;;;;;5022206;28;20065;-76
2021/10/25 13:57:41;;;;;;;18.00;10.60;;;461.60;1459.20;;;;;;5023615;28;20034;-76
2021/10/25 14:00:13;;;;;;;12.80;7.68;;;461.70;1459.20;;;;;;5018755;28;20108;-78
2021/10/25 14:02:41;;;;;;;16.58;10.35;;;461.70;1459.20;;;;;;5028872;28;20120;-78
2021/10/25 14:05:11;;;;;;;14.98;9.02;;;486.40;1459.20;;;;;;5035390;28;20461;-77
2021/10/25 14:07:37;;;;;;;17.33;9.13;;;486.40;1459.20;;;;;;5034523;28;20068;-75